createdAt,value
2022-08-05T00:02:11.382Z,5.47
2022-08-05T00:04:40.302Z,3.80
2022-08-05T00:07:26.783Z,5.28
2022-08-05T00:09:54.745Z,4.82
2022-08-05T00:12:21.914Z,5.15
2022-08-05T00:14:51.660Z,5.57
2022-08-05T00:17:19.437Z,4.55
2022-08-05T00:20:02.465Z,4.82
2022-08-05T00:22:30.970Z,5.32
2022-08-05T00:24:58.178Z,4.78
2022-08-05T00:27:35.753Z,5.90
2022-08-05T00:30:03.978Z,5.40
2022-08-05T00:32:31.280Z,5.50
2022-08-05T00:35:06.833Z,5.32
2022-08-05T00:37:52.347Z,5.85
2022-08-05T00:40:26.791Z,4.57
2022-08-05T00:42:59.970Z,5.50
2022-08-05T00:45:38.057Z,5.00
2022-08-05T00:48:07.001Z,5.60
2022-08-05T00:50:34.670Z,5.50
2022-08-05T00:53:03.017Z,4.88
2022-08-05T00:55:42.579Z,5.47
2022-08-05T00:58:11.793Z,4.85
2022-08-05T01:00:39.072Z,5.80
2022-08-05T01:03:07.844Z,5.53
2022-08-05T01:05:35.513Z,5.53
2022-08-05T01:08:30.677Z,5.28
2022-08-05T01:10:58.764Z,4.70
2022-08-05T01:13:57.931Z,4.70
2022-08-05T01:16:27.368Z,4.90
2022-08-05T01:18:58.609Z,4.95
2022-08-05T01:21:54.205Z,4.60
2022-08-05T01:24:22.105Z,4.32
2022-08-05T01:27:00.615Z,4.70
2022-08-05T01:29:47.912Z,4.65
2022-08-05T01:32:19.420Z,5.13
2022-08-05T01:34:48.381Z,5.07
2022-08-05T01:37:30.806Z,6.05
2022-08-05T01:40:01.771Z,5.70
2022-08-05T01:42:29.986Z,6.13
2022-08-05T01:44:59.964Z,6.53
2022-08-05T01:47:39.452Z,6.53
2022-08-05T01:50:14.979Z,6.28
2022-08-05T01:52:43.626Z,7.18
2022-08-05T01:55:13.578Z,6.65
2022-08-05T01:58:09.943Z,5.63
2022-08-05T02:00:31.110Z,6.07
2022-08-05T02:02:59.809Z,5.85
2022-08-05T02:05:34.301Z,5.95
2022-08-05T02:08:03.432Z,6.43
2022-08-05T02:10:34.779Z,5.97
2022-08-05T02:13:16.284Z,5.63
2022-08-05T02:15:50.824Z,5.80
2022-08-05T02:18:30.791Z,6.15
2022-08-05T02:21:14.711Z,5.55
2022-08-05T02:23:44.154Z,5.72
2022-08-05T02:26:14.571Z,4.75
2022-08-05T02:28:46.055Z,5.45
2022-08-05T02:31:21.125Z,4.88
2022-08-05T02:33:57.173Z,5.55
2022-08-05T02:36:31.138Z,5.80
2022-08-05T02:38:59.016Z,5.90
2022-08-05T02:41:28.871Z,6.18
2022-08-05T02:44:11.295Z,5.63
2022-08-05T02:46:44.040Z,6.25
2022-08-05T02:49:27.186Z,6.03
2022-08-05T02:52:04.725Z,6.75
2022-08-05T02:54:36.465Z,6.63
2022-08-05T02:57:10.224Z,6.57
2022-08-05T02:59:54.143Z,6.45
2022-08-05T03:02:23.548Z,6.88
2022-08-05T03:04:57.065Z,6.20
2022-08-05T03:07:48.504Z,6.80
2022-08-05T03:10:13.278Z,6.55
2022-08-05T03:12:41.136Z,7.97
2022-08-05T03:15:10.267Z,7.03
2022-08-05T03:17:41.750Z,7.47
2022-08-05T03:20:12.137Z,7.05
2022-08-05T03:22:44.018Z,6.72
2022-08-05T03:25:32.019Z,6.45
2022-08-05T03:28:02.238Z,6.82
2022-08-05T03:30:33.917Z,6.78
2022-08-05T03:33:02.251Z,7.18
2022-08-05T03:35:29.613Z,6.95
2022-08-05T03:38:01.397Z,6.68
2022-08-05T03:40:31.988Z,7.13
2022-08-05T03:43:15.991Z,7.78
2022-08-05T03:45:57.622Z,7.88
2022-08-05T03:48:25.665Z,7.32
2022-08-05T03:52:38.608Z,8.93
2022-08-05T03:55:53.047Z,8.35
2022-08-05T03:56:47.234Z,9.73
2022-08-05T03:59:20.385Z,9.23
2022-08-05T04:01:50.445Z,7.47
2022-08-05T04:04:21.213Z,8.73
2022-08-05T04:06:51.289Z,9.20
2022-08-05T04:09:20.305Z,8.98
2022-08-05T04:11:53.043Z,9.75
2022-08-05T04:14:30.165Z,10.60
2022-08-05T04:16:59.770Z,10.98
2022-08-05T04:19:28.436Z,10.43
2022-08-05T04:22:09.430Z,10.85
2022-08-05T04:24:44.354Z,12.32
2022-08-05T04:27:19.341Z,13.15
2022-08-05T04:30:03.516Z,14.40
2022-08-05T04:32:33.284Z,12.82
2022-08-05T04:35:00.966Z,13.88
2022-08-05T04:38:02.528Z,14.32
2022-08-05T04:40:19.537Z,13.60
2022-08-05T04:42:47.032Z,12.10
2022-08-05T04:45:31.200Z,11.93
2022-08-05T04:48:06.148Z,12.68
2022-08-05T04:51:03.593Z,12.45
2022-08-05T04:53:39.041Z,10.95
2022-08-05T04:56:33.487Z,11.38
2022-08-05T04:58:55.272Z,10.90
2022-08-05T05:02:06.302Z,11.52
2022-08-05T05:04:09.565Z,13.15
2022-08-05T05:06:44.546Z,13.73
2022-08-05T05:09:13.337Z,15.20
2022-08-05T05:11:52.915Z,13.60
2022-08-05T05:14:27.960Z,14.35
2022-08-05T05:16:59.185Z,12.88
2022-08-05T05:19:27.356Z,12.57
2022-08-05T05:22:22.635Z,11.25
2022-08-05T05:24:58.880Z,12.65
2022-08-05T05:27:44.137Z,12.13
2022-08-05T05:30:30.659Z,12.00
2022-08-05T05:33:08.798Z,12.90
2022-08-05T05:35:44.297Z,11.20
2022-08-05T05:38:13.207Z,13.23
2022-08-05T05:40:48.364Z,14.32
2022-08-05T05:43:27.712Z,14.75
2022-08-05T05:46:05.472Z,12.40
2022-08-05T05:48:38.268Z,13.45
2022-08-05T05:51:15.717Z,13.73
2022-08-05T05:53:57.961Z,11.75
2022-08-05T05:56:35.662Z,12.27
2022-08-05T05:59:07.601Z,12.90
2022-08-05T06:01:38.075Z,13.65
2022-08-05T06:04:15.186Z,14.20
2022-08-05T06:06:46.409Z,12.40
2022-08-05T06:09:17.062Z,12.40
2022-08-05T06:12:02.058Z,11.43
2022-08-05T06:14:33.409Z,10.70
2022-08-05T06:17:22.214Z,10.98
2022-08-05T06:19:56.733Z,10.15
2022-08-05T06:22:30.657Z,12.35
2022-08-05T06:25:01.036Z,13.55
2022-08-05T06:28:10.999Z,11.52
2022-08-05T06:30:35.331Z,11.35
2022-08-05T06:33:02.831Z,9.07
2022-08-05T06:36:07.872Z,8.85
2022-08-05T06:38:17.418Z,7.90
2022-08-05T06:41:03.666Z,7.80
2022-08-05T06:43:57.634Z,7.97
2022-08-05T06:46:18.630Z,8.32
2022-08-05T06:48:55.652Z,7.20
2022-08-05T06:51:29.915Z,7.70
2022-08-05T06:54:02.008Z,9.23
2022-08-05T06:56:30.151Z,8.23
2022-08-05T06:59:01.107Z,7.63
2022-08-05T07:01:32.320Z,7.95
2022-08-05T07:04:01.266Z,7.25
2022-08-05T07:06:28.785Z,7.82
2022-08-05T07:08:55.950Z,7.10
2022-08-05T07:11:28.823Z,7.30
2022-08-05T07:14:15.352Z,7.53
2022-08-05T07:17:58.677Z,6.45
2022-08-05T07:22:28.308Z,6.63
2022-08-05T07:25:22.130Z,6.20
2022-08-05T07:28:00.729Z,5.30
2022-08-05T07:30:35.099Z,4.85
2022-08-05T07:33:09.770Z,6.10
2022-08-05T07:35:56.692Z,5.68
2022-08-05T07:38:34.219Z,5.32
2022-08-05T07:42:07.743Z,6.25
2022-08-05T07:43:56.377Z,5.40
2022-08-05T07:46:30.866Z,4.78
2022-08-05T07:49:03.978Z,4.72
2022-08-05T07:51:40.363Z,5.40
2022-08-05T07:54:15.565Z,5.78
2022-08-05T07:57:01.749Z,5.63
2022-08-05T07:59:38.886Z,5.07
2022-08-05T08:02:16.840Z,4.78
2022-08-05T08:04:49.969Z,6.13
2022-08-05T08:07:22.863Z,5.25
2022-08-05T08:09:55.041Z,5.05
2022-08-05T08:12:33.323Z,5.35
2022-08-05T08:15:14.069Z,5.25
2022-08-05T08:17:46.121Z,6.57
2022-08-05T08:20:44.125Z,5.05
2022-08-05T08:24:00.367Z,4.97
2022-08-05T08:26:00.503Z,5.28
2022-08-05T08:28:36.867Z,6.30
2022-08-05T08:31:10.060Z,6.47
2022-08-05T08:33:42.288Z,6.55
2022-08-05T08:36:38.126Z,6.22
2022-08-05T08:38:59.308Z,5.93
2022-08-05T08:41:50.741Z,6.35
2022-08-05T08:45:18.466Z,5.40
2022-08-05T08:47:47.048Z,5.63
2022-08-05T08:50:22.974Z,5.03
2022-08-05T08:52:51.802Z,5.30
2022-08-05T08:56:02.739Z,6.22
2022-08-05T08:58:09.588Z,5.07
2022-08-05T09:00:37.093Z,5.03
2022-08-05T09:03:06.799Z,4.68
2022-08-05T09:05:38.521Z,5.38
2022-08-05T09:08:26.693Z,5.45
2022-08-05T09:10:54.791Z,6.05
2022-08-05T09:13:23.634Z,5.90
2022-08-05T09:15:51.149Z,5.82
2022-08-05T09:18:18.328Z,5.32
2022-08-05T09:20:46.069Z,5.80
2022-08-05T09:23:19.506Z,5.63
2022-08-05T09:26:03.412Z,5.45
2022-08-05T09:28:34.878Z,5.20
2022-08-05T09:31:22.199Z,4.88
2022-08-05T09:33:55.304Z,4.97
2022-08-05T09:36:27.612Z,4.13
2022-08-05T09:39:03.353Z,3.60
2022-08-05T09:41:56.896Z,4.40
2022-08-05T09:44:35.027Z,5.43
2022-08-05T09:47:14.123Z,4.40
2022-08-05T09:50:01.472Z,4.45
2022-08-05T09:52:29.774Z,4.97
2022-08-05T09:55:55.476Z,6.78
2022-08-05T09:57:49.976Z,3.35
2022-08-05T10:00:24.732Z,3.20
2022-08-05T10:02:58.371Z,3.55
2022-08-05T10:05:27.027Z,3.92
2022-08-05T10:08:36.706Z,3.55
2022-08-05T10:10:50.348Z,3.50
2022-08-05T10:13:27.728Z,3.55
2022-08-05T10:16:31.065Z,3.08
2022-08-05T10:18:59.966Z,2.58
2022-08-05T10:21:27.928Z,2.65
2022-08-05T10:24:07.549Z,2.83
2022-08-05T10:26:51.351Z,2.42
2022-08-05T10:29:24.128Z,2.55
2022-08-05T10:32:54.509Z,2.30
2022-08-05T10:35:01.152Z,1.83
2022-08-05T10:37:40.271Z,3.15
2022-08-05T10:40:35.025Z,2.45
2022-08-05T10:43:23.677Z,2.30
2022-08-05T10:46:06.193Z,2.20
2022-08-05T10:48:52.674Z,2.83
2022-08-05T10:51:29.072Z,2.38
2022-08-05T10:54:00.967Z,2.60
2022-08-05T10:56:29.932Z,2.83
2022-08-05T10:58:57.125Z,2.38
2022-08-05T11:01:55.046Z,2.92
2022-08-05T11:04:30.730Z,2.80
2022-08-05T11:06:58.418Z,2.33
2022-08-05T11:09:39.219Z,2.28
2022-08-05T11:12:24.913Z,3.15
2022-08-05T11:15:19.217Z,3.33
2022-08-05T11:17:59.038Z,2.25
2022-08-05T11:20:44.219Z,2.97
2022-08-05T11:23:49.747Z,2.70
2022-08-05T11:26:28.484Z,2.50
2022-08-05T11:29:11.646Z,2.70
2022-08-05T11:31:54.313Z,3.20
2022-08-05T11:34:37.557Z,3.03
2022-08-05T11:37:06.109Z,4.00
2022-08-05T11:39:55.200Z,3.05
2022-08-05T11:42:28.375Z,3.03
2022-08-05T11:45:02.372Z,2.67
2022-08-05T11:47:49.690Z,3.00
2022-08-05T11:50:17.761Z,3.38
2022-08-05T11:52:46.044Z,3.65
2022-08-05T11:55:16.225Z,2.92
2022-08-05T11:58:10.145Z,5.70
2022-08-05T12:00:38.407Z,4.85
2022-08-05T12:03:31.602Z,5.68
2022-08-05T12:06:10.040Z,5.60
2022-08-05T12:08:59.505Z,4.75
2022-08-05T12:11:40.169Z,5.25
2022-08-05T12:14:10.301Z,4.45
2022-08-05T12:16:45.135Z,4.07
2022-08-05T12:20:17.114Z,4.68
2022-08-05T12:22:01.157Z,3.20
2022-08-05T12:24:28.602Z,3.63
2022-08-05T12:26:57.276Z,3.20
2022-08-05T12:29:25.713Z,2.60
2022-08-05T12:31:55.167Z,3.90
2022-08-05T12:34:25.899Z,3.60
2022-08-05T12:36:53.854Z,3.90
2022-08-05T12:39:21.449Z,3.40
2022-08-05T12:41:48.871Z,3.30
2022-08-05T12:44:28.602Z,3.53
2022-08-05T12:47:00.643Z,3.40
2022-08-05T12:50:03.141Z,3.05
2022-08-05T12:52:30.414Z,3.60
2022-08-05T12:55:02.709Z,3.15
2022-08-05T12:58:51.396Z,3.47
2022-08-05T13:02:00.417Z,3.25
2022-08-05T13:03:12.209Z,2.72
2022-08-05T13:05:42.042Z,2.58
2022-08-05T13:08:09.358Z,2.13
2022-08-05T13:10:50.229Z,2.20
2022-08-05T13:14:04.699Z,2.10
2022-08-05T13:16:25.259Z,1.98
2022-08-05T13:18:57.745Z,1.73
2022-08-05T13:21:28.443Z,2.13
2022-08-05T13:24:05.142Z,1.73
2022-08-05T13:26:32.551Z,2.60
2022-08-05T13:28:59.943Z,1.95
2022-08-05T13:32:02.910Z,1.80
2022-08-05T13:34:21.944Z,2.38
2022-08-05T13:36:52.782Z,1.63
2022-08-05T13:39:24.305Z,1.80
2022-08-05T13:42:07.254Z,2.38
2022-08-05T13:44:36.636Z,1.80
2022-08-05T13:47:08.383Z,1.80
2022-08-05T13:49:36.439Z,1.77
2022-08-05T13:52:13.495Z,2.97
2022-08-05T13:54:41.436Z,1.80
2022-08-05T13:57:09.267Z,1.50
2022-08-05T13:59:37.644Z,1.30
2022-08-05T14:02:26.584Z,1.10
2022-08-05T14:05:15.246Z,1.38
2022-08-05T14:08:00.537Z,1.20
2022-08-05T14:10:31.136Z,1.10
2022-08-05T14:12:58.615Z,1.30
2022-08-05T14:16:04.959Z,1.40
2022-08-05T14:18:17.653Z,3.10
2022-08-05T14:20:47.189Z,1.90
2022-08-05T14:23:19.272Z,1.80
2022-08-05T14:25:54.550Z,1.50
2022-08-05T14:28:26.941Z,1.23
2022-08-05T14:30:54.595Z,1.17
2022-08-05T14:33:22.732Z,0.80
2022-08-05T14:35:51.975Z,1.23
2022-08-05T14:38:31.591Z,1.40
2022-08-05T14:41:00.510Z,0.90
2022-08-05T14:43:57.704Z,1.00
2022-08-05T14:46:15.166Z,1.27
2022-08-05T14:48:42.554Z,0.98
2022-08-05T14:51:10.039Z,1.55
2022-08-05T14:53:44.172Z,1.10
2022-08-05T14:56:12.102Z,1.77
2022-08-05T14:58:47.737Z,1.60
2022-08-05T15:01:47.298Z,0.98
2022-08-05T15:04:11.562Z,0.82
2022-08-05T15:06:39.146Z,1.10
2022-08-05T15:09:07.798Z,1.40
2022-08-05T15:11:51.351Z,0.70
2022-08-05T15:14:35.659Z,0.55
2022-08-05T15:17:09.983Z,0.70
2022-08-05T15:19:56.020Z,0.70
2022-08-05T15:22:27.010Z,0.88
2022-08-05T15:24:55.504Z,1.38
2022-08-05T15:27:25.476Z,0.70
2022-08-05T15:29:56.619Z,0.57
2022-08-05T15:32:27.498Z,0.73
2022-08-05T15:34:56.725Z,0.60
2022-08-05T15:38:32.590Z,0.82
2022-08-05T15:40:58.547Z,0.60
2022-08-05T15:43:09.243Z,0.70
2022-08-05T15:45:46.029Z,0.60
2022-08-05T15:48:14.120Z,0.63
2022-08-05T15:50:43.931Z,0.85
2022-08-05T15:53:13.227Z,0.80
2022-08-05T15:56:02.857Z,0.73
2022-08-05T15:58:29.230Z,1.52
2022-08-05T16:01:12.009Z,1.00
2022-08-05T16:03:44.402Z,0.88
2022-08-05T16:06:15.982Z,0.73
2022-08-05T16:08:47.875Z,1.27
2022-08-05T16:11:18.297Z,0.82
2022-08-05T16:13:48.485Z,0.80
2022-08-05T16:16:25.295Z,0.90
2022-08-05T16:18:53.097Z,0.73
2022-08-05T16:21:20.555Z,1.00
2022-08-05T16:24:12.738Z,0.63
2022-08-05T16:26:53.807Z,1.00
2022-08-05T16:29:22.025Z,0.90
2022-08-05T16:31:56.765Z,0.77
2022-08-05T16:34:25.636Z,0.93
2022-08-05T16:36:54.100Z,0.70
2022-08-05T16:39:21.688Z,1.33
2022-08-05T16:42:27.946Z,1.00
2022-08-05T16:44:57.079Z,0.80
2022-08-05T16:47:29.064Z,1.00
2022-08-05T16:50:04.500Z,1.20
2022-08-05T16:52:33.577Z,1.10
2022-08-05T16:55:01.027Z,1.08
2022-08-05T16:57:39.951Z,1.05
2022-08-05T17:00:25.938Z,1.65
2022-08-05T17:03:03.019Z,1.33
2022-08-05T17:05:30.860Z,1.13
2022-08-05T17:07:58.359Z,0.90
2022-08-05T17:10:26.516Z,1.23
2022-08-05T17:12:58.276Z,1.85
2022-08-05T17:15:29.410Z,1.70
2022-08-05T17:18:14.273Z,1.10
2022-08-05T17:20:42.423Z,1.20
2022-08-05T17:24:02.906Z,0.93
2022-08-05T17:25:59.005Z,0.90
2022-08-05T17:28:26.509Z,1.48
2022-08-05T17:30:56.241Z,2.80
2022-08-05T17:33:23.737Z,0.93
2022-08-05T17:36:07.925Z,0.82
2022-08-05T17:38:39.756Z,1.35
2022-08-05T17:41:11.482Z,0.75
2022-08-05T17:43:50.627Z,1.10
2022-08-05T17:46:22.035Z,0.80
2022-08-05T17:48:49.453Z,0.77
2022-08-05T17:51:21.745Z,0.80
2022-08-05T17:53:50.795Z,0.80
2022-08-05T17:56:22.619Z,1.20
2022-08-05T17:58:51.229Z,1.25
2022-08-05T18:01:19.686Z,1.83
2022-08-05T18:03:59.349Z,0.90
2022-08-05T18:06:31.911Z,4.63
2022-08-05T18:08:59.910Z,1.17
2022-08-05T18:11:33.208Z,0.80
2022-08-05T18:14:06.684Z,0.73
2022-08-05T18:16:35.079Z,0.80
2022-08-05T18:19:14.153Z,0.68
2022-08-05T18:22:07.005Z,0.80
2022-08-05T18:24:28.652Z,0.90
2022-08-05T18:26:55.956Z,1.88
2022-08-05T18:29:39.933Z,0.82
2022-08-05T18:32:12.782Z,1.08
2022-08-05T18:34:40.802Z,1.33
2022-08-05T18:37:12.188Z,2.10
2022-08-05T18:40:33.737Z,5.35
2022-08-05T18:42:27.602Z,1.00
2022-08-05T18:44:56.213Z,1.60
2022-08-05T18:47:26.904Z,1.30
2022-08-05T18:50:13.100Z,1.52
2022-08-05T18:52:50.897Z,1.08
2022-08-05T18:55:20.103Z,1.27
2022-08-05T18:57:53.422Z,1.45
2022-08-05T19:00:29.110Z,1.33
2022-08-05T19:02:56.963Z,1.70
2022-08-05T19:06:12.092Z,1.15
2022-08-05T19:08:15.248Z,1.02
2022-08-05T19:10:42.729Z,1.40
2022-08-05T19:13:12.230Z,1.20
2022-08-05T19:15:59.762Z,1.50
2022-08-05T19:18:30.387Z,1.50
2022-08-05T19:20:59.680Z,1.10
2022-08-05T19:24:07.534Z,1.05
2022-08-05T19:26:16.715Z,1.00
2022-08-05T19:28:44.145Z,1.13
2022-08-05T19:31:13.239Z,0.80
2022-08-05T19:33:48.176Z,1.27
2022-08-05T19:36:24.476Z,2.17
2022-08-05T19:38:51.688Z,4.60
2022-08-05T19:41:21.902Z,1.08
2022-08-05T19:44:05.445Z,0.90
2022-08-05T19:46:40.684Z,1.33
2022-08-05T19:49:08.464Z,1.60
2022-08-05T19:52:05.598Z,1.40
2022-08-05T19:54:32.027Z,1.33
2022-08-05T19:56:59.939Z,1.38
2022-08-05T19:59:56.372Z,1.20
2022-08-05T20:02:17.446Z,1.25
2022-08-05T20:04:45.885Z,1.00
2022-08-05T20:07:14.064Z,1.13
2022-08-05T20:09:53.929Z,0.98
2022-08-05T20:12:22.595Z,3.20
2022-08-05T20:14:52.257Z,5.65
2022-08-05T20:17:23.653Z,1.95
2022-08-05T20:19:57.543Z,1.15
2022-08-05T20:22:27.044Z,8.48
2022-08-05T20:24:55.121Z,3.97
2022-08-05T20:27:41.729Z,1.23
2022-08-05T20:30:26.446Z,1.50
2022-08-05T20:33:17.089Z,1.05
2022-08-05T20:36:10.132Z,1.50
2022-08-05T20:38:53.695Z,2.00
2022-08-05T20:41:27.498Z,1.38
2022-08-05T20:44:19.072Z,1.73
2022-08-05T20:46:58.005Z,1.35
2022-08-05T20:49:26.103Z,2.72
2022-08-05T20:51:54.421Z,1.38
2022-08-05T20:54:22.113Z,3.05
2022-08-05T20:56:49.581Z,2.03
2022-08-05T20:59:26.201Z,1.80
2022-08-05T21:01:57.126Z,2.53
2022-08-05T21:04:26.903Z,1.70
2022-08-05T21:06:54.617Z,1.40
2022-08-05T21:09:23.041Z,1.30
2022-08-05T21:12:09.192Z,2.17
2022-08-05T21:14:38.203Z,1.67
2022-08-05T21:17:06.068Z,2.00
2022-08-05T21:19:47.401Z,2.15
2022-08-05T21:22:17.754Z,3.50
2022-08-05T21:24:48.957Z,1.70
2022-08-05T21:27:24.541Z,1.10
2022-08-05T21:29:55.263Z,1.50
2022-08-05T21:32:23.366Z,1.30
2022-08-05T21:34:55.843Z,1.30
2022-08-05T21:37:41.176Z,1.00
2022-08-05T21:40:13.646Z,2.65
2022-08-05T21:42:44.804Z,1.63
2022-08-05T21:45:25.091Z,1.55
2022-08-05T21:48:02.553Z,4.22
2022-08-05T21:50:34.172Z,1.92
2022-08-05T21:53:16.437Z,1.25
2022-08-05T21:56:05.598Z,1.00
2022-08-05T21:58:32.467Z,1.73
2022-08-05T22:00:59.956Z,2.28
2022-08-05T22:03:48.529Z,2.67
2022-08-05T22:06:15.605Z,1.23
2022-08-05T22:08:42.992Z,1.23
2022-08-05T22:11:12.024Z,1.30
2022-08-05T22:14:31.221Z,1.33
2022-08-05T22:16:50.766Z,1.80
2022-08-05T22:20:00.866Z,1.77
2022-08-05T22:22:05.385Z,1.10
2022-08-05T22:24:52.289Z,1.40
2022-08-05T22:28:09.268Z,1.10
2022-08-05T22:30:56.187Z,3.13
2022-08-05T22:33:56.571Z,7.85
2022-08-05T22:36:15.277Z,2.05
2022-08-05T22:38:43.393Z,1.50
2022-08-05T22:41:10.992Z,1.65
2022-08-05T22:43:40.584Z,1.30
2022-08-05T22:46:13.200Z,1.27
2022-08-05T22:48:48.234Z,1.40
2022-08-05T22:51:15.983Z,1.23
2022-08-05T22:53:50.419Z,1.45
2022-08-05T22:56:30.054Z,1.40
2022-08-05T22:58:58.548Z,1.17
2022-08-05T23:02:04.578Z,1.35
2022-08-05T23:04:14.842Z,1.20
2022-08-05T23:06:42.584Z,1.42
2022-08-05T23:09:27.134Z,1.40
2022-08-05T23:11:57.121Z,1.10
2022-08-05T23:14:31.971Z,1.23
2022-08-05T23:17:18.717Z,1.25
2022-08-05T23:19:56.708Z,1.15
2022-08-05T23:22:27.402Z,2.50
2022-08-05T23:24:55.247Z,2.88
2022-08-05T23:27:22.755Z,1.70
2022-08-05T23:29:51.392Z,1.73
2022-08-05T23:32:18.753Z,1.60
2022-08-05T23:34:50.722Z,2.03
2022-08-05T23:37:18.647Z,1.65
2022-08-05T23:39:53.605Z,2.10
2022-08-05T23:42:23.394Z,2.83
2022-08-05T23:44:57.343Z,1.60
2022-08-05T23:47:25.406Z,1.90
2022-08-05T23:49:56.358Z,1.40
2022-08-05T23:52:27.739Z,1.38
2022-08-05T23:54:56.718Z,2.13
2022-08-05T23:57:24.416Z,1.83
